sensor_id;sensor_type;location;lat;lon;timestamp;P1;durP1;ratioP1;P2;durP2;ratioP2
54121;SDS011;40029;58.708;50.190;2023-05-06T00:02:28;4.10;;;2.60;;
54121;SDS011;40029;58.708;50.190;2023-05-06T00:05:00;4.50;;;3.00;;
54121;SDS011;40029;58.708;50.190;2023-05-06T00:07:35;5.68;;;3.00;;
54121;SDS011;40029;58.708;50.190;2023-05-06T00:10:24;5.53;;;3.03;;
54121;SDS011;40029;58.708;50.190;2023-05-06T00:12:55;3.35;;;2.80;;
54121;SDS011;40029;58.708;50.190;2023-05-06T00:15:26;3.65;;;2.92;;
54121;SDS011;40029;58.708;50.190;2023-05-06T00:17:58;4.47;;;3.40;;
54121;SDS011;40029;58.708;50.190;2023-05-06T00:20:30;5.18;;;3.33;;
54121;SDS011;40029;58.708;50.190;2023-05-06T00:23:02;3.72;;;3.30;;
54121;SDS011;40029;58.708;50.190;2023-05-06T00:25:34;4.93;;;3.25;;
54121;SDS011;40029;58.708;50.190;2023-05-06T00:28:05;4.57;;;3.17;;
54121;SDS011;40029;58.708;50.190;2023-05-06T00:30:36;4.63;;;3.10;;
54121;SDS011;40029;58.708;50.190;2023-05-06T00:33:07;4.28;;;3.05;;
54121;SDS011;40029;58.708;50.190;2023-05-06T00:35:38;3.80;;;3.03;;
54121;SDS011;40029;58.708;50.190;2023-05-06T00:38:10;3.42;;;2.90;;
54121;SDS011;40029;58.708;50.190;2023-05-06T00:40:46;7.72;;;2.33;;
54121;SDS011;40029;58.708;50.190;2023-05-06T00:43:17;2.92;;;2.58;;
54121;SDS011;40029;58.708;50.190;2023-05-06T00:45:48;2.50;;;2.30;;
54121;SDS011;40029;58.708;50.190;2023-05-06T00:48:21;2.78;;;2.38;;
54121;SDS011;40029;58.708;50.190;2023-05-06T00:50:52;3.20;;;2.80;;
54121;SDS011;40029;58.708;50.190;2023-05-06T00:53:25;2.47;;;1.98;;
54121;SDS011;40029;58.708;50.190;2023-05-06T00:55:56;4.57;;;2.05;;
54121;SDS011;40029;58.708;50.190;2023-05-06T00:58:28;3.22;;;2.05;;
54121;SDS011;40029;58.708;50.190;2023-05-06T01:00:59;2.53;;;2.20;;
54121;SDS011;40029;58.708;50.190;2023-05-06T01:03:49;4.97;;;2.15;;
54121;SDS011;40029;58.708;50.190;2023-05-06T01:11:55;2.70;;;2.00;;
54121;SDS011;40029;58.708;50.190;2023-05-06T01:14:40;4.97;;;2.65;;
54121;SDS011;40029;58.708;50.190;2023-05-06T01:17:33;2.80;;;2.50;;
54121;SDS011;40029;58.708;50.190;2023-05-06T01:20:09;2.45;;;2.25;;
54121;SDS011;40029;58.708;50.190;2023-05-06T01:22:42;2.70;;;2.50;;
54121;SDS011;40029;58.708;50.190;2023-05-06T01:25:33;3.13;;;2.28;;
54121;SDS011;40029;58.708;50.190;2023-05-06T01:28:04;2.33;;;1.90;;
54121;SDS011;40029;58.708;50.190;2023-05-06T01:36:18;2.78;;;2.15;;
54121;SDS011;40029;58.708;50.190;2023-05-06T01:39:17;2.65;;;1.98;;
54121;SDS011;40029;58.708;50.190;2023-05-06T01:41:52;2.88;;;2.60;;
54121;SDS011;40029;58.708;50.190;2023-05-06T01:44:27;2.00;;;1.80;;
54121;SDS011;40029;58.708;50.190;2023-05-06T01:47:03;2.58;;;1.90;;
54121;SDS011;40029;58.708;50.190;2023-05-06T01:49:37;2.20;;;2.00;;
54121;SDS011;40029;58.708;50.190;2023-05-06T01:52:08;4.28;;;1.70;;
54121;SDS011;40029;58.708;50.190;2023-05-06T01:54:58;2.28;;;1.80;;
54121;SDS011;40029;58.708;50.190;2023-05-06T01:57:29;1.67;;;1.58;;
54121;SDS011;40029;58.708;50.190;2023-05-06T02:00:00;1.80;;;1.27;;
54121;SDS011;40029;58.708;50.190;2023-05-06T02:02:51;1.58;;;1.20;;
54121;SDS011;40029;58.708;50.190;2023-05-06T02:05:22;2.75;;;1.63;;
54121;SDS011;40029;58.708;50.190;2023-05-06T02:07:58;2.00;;;1.75;;
54121;SDS011;40029;58.708;50.190;2023-05-06T02:10:30;1.55;;;1.20;;
54121;SDS011;40029;58.708;50.190;2023-05-06T02:13:09;1.98;;;1.30;;
54121;SDS011;40029;58.708;50.190;2023-05-06T02:15:41;1.60;;;1.30;;
54121;SDS011;40029;58.708;50.190;2023-05-06T02:18:17;1.80;;;1.30;;
54121;SDS011;40029;58.708;50.190;2023-05-06T02:20:49;3.40;;;1.45;;
54121;SDS011;40029;58.708;50.190;2023-05-06T02:23:22;1.50;;;1.27;;
54121;SDS011;40029;58.708;50.190;2023-05-06T02:25:53;4.03;;;1.90;;
54121;SDS011;40029;58.708;50.190;2023-05-06T02:28:25;3.88;;;1.00;;
54121;SDS011;40029;58.708;50.190;2023-05-06T02:30:56;2.75;;;0.88;;
54121;SDS011;40029;58.708;50.190;2023-05-06T02:33:27;3.95;;;0.85;;
54121;SDS011;40029;58.708;50.190;2023-05-06T02:35:58;1.25;;;1.10;;
54121;SDS011;40029;58.708;50.190;2023-05-06T02:38:29;2.88;;;1.23;;
54121;SDS011;40029;58.708;50.190;2023-05-06T02:41:01;2.28;;;1.15;;
54121;SDS011;40029;58.708;50.190;2023-05-06T02:43:32;2.47;;;1.67;;
54121;SDS011;40029;58.708;50.190;2023-05-06T02:46:03;1.88;;;1.33;;
54121;SDS011;40029;58.708;50.190;2023-05-06T02:48:34;3.13;;;1.33;;
54121;SDS011;40029;58.708;50.190;2023-05-06T02:51:07;5.10;;;1.33;;
54121;SDS011;40029;58.708;50.190;2023-05-06T02:53:39;2.42;;;1.38;;
54121;SDS011;40029;58.708;50.190;2023-05-06T02:56:10;2.47;;;1.42;;
54121;SDS011;40029;58.708;50.190;2023-05-06T02:59:00;4.20;;;2.75;;
54121;SDS011;40029;58.708;50.190;2023-05-06T03:01:31;17.23;;;5.07;;
54121;SDS011;40029;58.708;50.190;2023-05-06T03:04:02;20.77;;;8.07;;
54121;SDS011;40029;58.708;50.190;2023-05-06T03:06:33;8.95;;;3.97;;
54121;SDS011;40029;58.708;50.190;2023-05-06T03:09:05;9.68;;;5.70;;
54121;SDS011;40029;58.708;50.190;2023-05-06T03:11:36;7.35;;;4.55;;
54121;SDS011;40029;58.708;50.190;2023-05-06T03:14:09;8.63;;;4.65;;
54121;SDS011;40029;58.708;50.190;2023-05-06T03:16:40;3.10;;;1.98;;
54121;SDS011;40029;58.708;50.190;2023-05-06T03:19:12;5.63;;;1.55;;
54121;SDS011;40029;58.708;50.190;2023-05-06T03:21:45;3.22;;;2.47;;
54121;SDS011;40029;58.708;50.190;2023-05-06T03:24:16;3.47;;;2.63;;
54121;SDS011;40029;58.708;50.190;2023-05-06T03:26:47;3.08;;;2.78;;
54121;SDS011;40029;58.708;50.190;2023-05-06T03:29:19;6.82;;;2.88;;
54121;SDS011;40029;58.708;50.190;2023-05-06T03:31:51;3.60;;;1.73;;
54121;SDS011;40029;58.708;50.190;2023-05-06T03:34:26;1.33;;;1.20;;
54121;SDS011;40029;58.708;50.190;2023-05-06T03:36:59;0.82;;;0.80;;
54121;SDS011;40029;58.708;50.190;2023-05-06T03:39:49;0.75;;;0.70;;
54121;SDS011;40029;58.708;50.190;2023-05-06T03:44:55;0.90;;;0.70;;
54121;SDS011;40029;58.708;50.190;2023-05-06T03:47:27;5.03;;;2.65;;
54121;SDS011;40029;58.708;50.190;2023-05-06T03:49:59;4.38;;;2.67;;
54121;SDS011;40029;58.708;50.190;2023-05-06T03:52:30;4.05;;;1.70;;
54121;SDS011;40029;58.708;50.190;2023-05-06T03:55:03;2.33;;;1.50;;
54121;SDS011;40029;58.708;50.190;2023-05-06T03:57:35;2.20;;;1.30;;
54121;SDS011;40029;58.708;50.190;2023-05-06T04:00:08;0.93;;;0.85;;
54121;SDS011;40029;58.708;50.190;2023-05-06T04:02:47;1.35;;;0.75;;
54121;SDS011;40029;58.708;50.190;2023-05-06T04:05:25;0.82;;;0.70;;
54121;SDS011;40029;58.708;50.190;2023-05-06T04:07:57;1.42;;;0.80;;
54121;SDS011;40029;58.708;50.190;2023-05-06T04:10:28;1.00;;;0.73;;
54121;SDS011;40029;58.708;50.190;2023-05-06T04:13:18;1.45;;;0.93;;
54121;SDS011;40029;58.708;50.190;2023-05-06T04:16:07;1.67;;;0.73;;
54121;SDS011;40029;58.708;50.190;2023-05-06T04:18:57;2.22;;;1.05;;
54121;SDS011;40029;58.708;50.190;2023-05-06T04:21:29;2.00;;;0.80;;
54121;SDS011;40029;58.708;50.190;2023-05-06T04:24:06;1.73;;;1.42;;
54121;SDS011;40029;58.708;50.190;2023-05-06T04:26:41;5.78;;;2.92;;
54121;SDS011;40029;58.708;50.190;2023-05-06T04:29:13;10.88;;;5.78;;
54121;SDS011;40029;58.708;50.190;2023-05-06T04:31:57;5.57;;;4.10;;
54121;SDS011;40029;58.708;50.190;2023-05-06T04:34:30;6.15;;;4.18;;
54121;SDS011;40029;58.708;50.190;2023-05-06T04:39:47;1.90;;;1.70;;
54121;SDS011;40029;58.708;50.190;2023-05-06T04:42:19;2.70;;;1.80;;
54121;SDS011;40029;58.708;50.190;2023-05-06T04:45:06;2.40;;;2.20;;
54121;SDS011;40029;58.708;50.190;2023-05-06T04:47:41;1.25;;;1.15;;
54121;SDS011;40029;58.708;50.190;2023-05-06T04:50:13;1.33;;;0.75;;
54121;SDS011;40029;58.708;50.190;2023-05-06T04:53:02;2.00;;;0.70;;
54121;SDS011;40029;58.708;50.190;2023-05-06T04:55:34;1.92;;;0.70;;
54121;SDS011;40029;58.708;50.190;2023-05-06T04:58:05;2.65;;;0.77;;
54121;SDS011;40029;58.708;50.190;2023-05-06T05:00:38;2.25;;;0.90;;
54121;SDS011;40029;58.708;50.190;2023-05-06T05:03:09;1.75;;;1.10;;
54121;SDS011;40029;58.708;50.190;2023-05-06T05:05:41;3.13;;;1.02;;
54121;SDS011;40029;58.708;50.190;2023-05-06T05:08:31;2.03;;;1.15;;
54121;SDS011;40029;58.708;50.190;2023-05-06T05:11:02;1.63;;;1.08;;
54121;SDS011;40029;58.708;50.190;2023-05-06T05:13:36;1.48;;;1.05;;
54121;SDS011;40029;58.708;50.190;2023-05-06T05:16:09;2.58;;;2.10;;
54121;SDS011;40029;58.708;50.190;2023-05-06T05:18:43;1.77;;;1.42;;
54121;SDS011;40029;58.708;50.190;2023-05-06T05:21:23;2.80;;;1.38;;
54121;SDS011;40029;58.708;50.190;2023-05-06T05:23:54;2.92;;;2.10;;
54121;SDS011;40029;58.708;50.190;2023-05-06T05:26:25;2.15;;;1.05;;
54121;SDS011;40029;58.708;50.190;2023-05-06T05:28:58;3.05;;;2.33;;
54121;SDS011;40029;58.708;50.190;2023-05-06T05:31:30;2.53;;;1.50;;
54121;SDS011;40029;58.708;50.190;2023-05-06T05:34:01;1.70;;;1.30;;
54121;SDS011;40029;58.708;50.190;2023-05-06T05:36:33;1.85;;;1.25;;
54121;SDS011;40029;58.708;50.190;2023-05-06T05:39:07;1.17;;;0.80;;
54121;SDS011;40029;58.708;50.190;2023-05-06T05:41:43;1.35;;;0.57;;
54121;SDS011;40029;58.708;50.190;2023-05-06T05:44:15;1.50;;;0.98;;
54121;SDS011;40029;58.708;50.190;2023-05-06T05:46:46;2.80;;;0.90;;
54121;SDS011;40029;58.708;50.190;2023-05-06T05:49:21;1.10;;;0.90;;
54121;SDS011;40029;58.708;50.190;2023-05-06T05:51:55;1.75;;;0.80;;
54121;SDS011;40029;58.708;50.190;2023-05-06T05:54:45;0.93;;;0.70;;
54121;SDS011;40029;58.708;50.190;2023-05-06T05:57:16;1.35;;;0.95;;
54121;SDS011;40029;58.708;50.190;2023-05-06T05:59:47;0.63;;;0.52;;
54121;SDS011;40029;58.708;50.190;2023-05-06T06:02:19;1.60;;;0.70;;
54121;SDS011;40029;58.708;50.190;2023-05-06T06:04:50;5.85;;;0.88;;
54121;SDS011;40029;58.708;50.190;2023-05-06T06:07:22;1.77;;;0.80;;
54121;SDS011;40029;58.708;50.190;2023-05-06T06:09:53;2.05;;;0.70;;
54121;SDS011;40029;58.708;50.190;2023-05-06T06:12:24;2.60;;;1.00;;
54121;SDS011;40029;58.708;50.190;2023-05-06T06:14:55;1.15;;;0.80;;
54121;SDS011;40029;58.708;50.190;2023-05-06T06:17:29;1.20;;;0.90;;
54121;SDS011;40029;58.708;50.190;2023-05-06T06:20:01;1.63;;;0.95;;
54121;SDS011;40029;58.708;50.190;2023-05-06T06:22:35;1.15;;;0.57;;
54121;SDS011;40029;58.708;50.190;2023-05-06T06:25:06;1.40;;;0.80;;
54121;SDS011;40029;58.708;50.190;2023-05-06T06:27:39;1.58;;;0.82;;
54121;SDS011;40029;58.708;50.190;2023-05-06T06:30:11;4.97;;;1.42;;
54121;SDS011;40029;58.708;50.190;2023-05-06T06:32:47;1.60;;;0.93;;
54121;SDS011;40029;58.708;50.190;2023-05-06T06:35:20;2.15;;;1.00;;
54121;SDS011;40029;58.708;50.190;2023-05-06T06:37:51;1.17;;;1.00;;
54121;SDS011;40029;58.708;50.190;2023-05-06T06:40:22;4.43;;;1.20;;
54121;SDS011;40029;58.708;50.190;2023-05-06T06:42:53;2.85;;;1.85;;
54121;SDS011;40029;58.708;50.190;2023-05-06T06:45:45;2.08;;;1.38;;
54121;SDS011;40029;58.708;50.190;2023-05-06T06:48:35;5.85;;;2.95;;
54121;SDS011;40029;58.708;50.190;2023-05-06T06:51:06;1.95;;;0.95;;
54121;SDS011;40029;58.708;50.190;2023-05-06T06:53:38;0.80;;;0.57;;
54121;SDS011;40029;58.708;50.190;2023-05-06T06:56:09;0.80;;;0.73;;
54121;SDS011;40029;58.708;50.190;2023-05-06T06:58:44;2.05;;;0.80;;
54121;SDS011;40029;58.708;50.190;2023-05-06T07:01:15;1.15;;;1.05;;
54121;SDS011;40029;58.708;50.190;2023-05-06T07:04:04;1.30;;;1.20;;
54121;SDS011;40029;58.708;50.190;2023-05-06T07:06:35;2.38;;;1.20;;
54121;SDS011;40029;58.708;50.190;2023-05-06T07:09:06;2.25;;;1.08;;
54121;SDS011;40029;58.708;50.190;2023-05-06T07:11:56;2.92;;;1.27;;
54121;SDS011;40029;58.708;50.190;2023-05-06T07:14:28;6.75;;;2.00;;
54121;SDS011;40029;58.708;50.190;2023-05-06T07:16:59;2.45;;;1.83;;
54121;SDS011;40029;58.708;50.190;2023-05-06T07:19:30;2.10;;;1.23;;
54121;SDS011;40029;58.708;50.190;2023-05-06T07:22:02;1.55;;;1.13;;
54121;SDS011;40029;58.708;50.190;2023-05-06T07:24:33;2.40;;;1.52;;
54121;SDS011;40029;58.708;50.190;2023-05-06T07:27:04;3.72;;;2.15;;
54121;SDS011;40029;58.708;50.190;2023-05-06T07:29:35;2.00;;;1.30;;
54121;SDS011;40029;58.708;50.190;2023-05-06T07:32:07;2.60;;;1.50;;
54121;SDS011;40029;58.708;50.190;2023-05-06T07:34:38;3.85;;;1.80;;
54121;SDS011;40029;58.708;50.190;2023-05-06T07:37:10;3.47;;;1.88;;
54121;SDS011;40029;58.708;50.190;2023-05-06T07:39:41;2.08;;;1.20;;
54121;SDS011;40029;58.708;50.190;2023-05-06T07:42:12;2.80;;;2.10;;
54121;SDS011;40029;58.708;50.190;2023-05-06T07:44:44;3.00;;;2.13;;
54121;SDS011;40029;58.708;50.190;2023-05-06T07:47:24;3.13;;;1.98;;
54121;SDS011;40029;58.708;50.190;2023-05-06T07:49:57;3.65;;;1.40;;
54121;SDS011;40029;58.708;50.190;2023-05-06T07:52:29;3.67;;;1.85;;
54121;SDS011;40029;58.708;50.190;2023-05-06T07:55:00;6.47;;;3.50;;
54121;SDS011;40029;58.708;50.190;2023-05-06T07:57:32;5.00;;;3.50;;
54121;SDS011;40029;58.708;50.190;2023-05-06T08:00:03;2.72;;;1.77;;
54121;SDS011;40029;58.708;50.190;2023-05-06T08:02:54;5.25;;;2.05;;
54121;SDS011;40029;58.708;50.190;2023-05-06T08:05:25;3.92;;;2.30;;
54121;SDS011;40029;58.708;50.190;2023-05-06T08:07:56;3.53;;;2.17;;
54121;SDS011;40029;58.708;50.190;2023-05-06T08:10:28;4.03;;;1.60;;
54121;SDS011;40029;58.708;50.190;2023-05-06T08:12:59;3.78;;;2.45;;
54121;SDS011;40029;58.708;50.190;2023-05-06T08:15:30;3.35;;;2.88;;
54121;SDS011;40029;58.708;50.190;2023-05-06T08:18:02;4.45;;;2.50;;
54121;SDS011;40029;58.708;50.190;2023-05-06T08:20:33;3.92;;;1.80;;
54121;SDS011;40029;58.708;50.190;2023-05-06T08:23:23;3.55;;;2.13;;
54121;SDS011;40029;58.708;50.190;2023-05-06T08:26:12;2.10;;;1.35;;
54121;SDS011;40029;58.708;50.190;2023-05-06T08:28:44;2.97;;;1.42;;
54121;SDS011;40029;58.708;50.190;2023-05-06T08:31:15;3.47;;;1.92;;
54121;SDS011;40029;58.708;50.190;2023-05-06T08:33:46;2.13;;;1.67;;
54121;SDS011;40029;58.708;50.190;2023-05-06T08:36:17;2.58;;;1.10;;
54121;SDS011;40029;58.708;50.190;2023-05-06T08:38:48;3.58;;;1.17;;
54121;SDS011;40029;58.708;50.190;2023-05-06T08:41:39;1.33;;;1.10;;
54121;SDS011;40029;58.708;50.190;2023-05-06T08:44:11;2.22;;;0.93;;
54121;SDS011;40029;58.708;50.190;2023-05-06T08:46:46;3.55;;;1.30;;
54121;SDS011;40029;58.708;50.190;2023-05-06T08:49:18;1.33;;;0.90;;
54121;SDS011;40029;58.708;50.190;2023-05-06T08:51:51;1.88;;;1.27;;
54121;SDS011;40029;58.708;50.190;2023-05-06T08:54:23;2.97;;;1.30;;
54121;SDS011;40029;58.708;50.190;2023-05-06T08:56:56;5.07;;;2.20;;
54121;SDS011;40029;58.708;50.190;2023-05-06T08:59:29;3.05;;;2.10;;
54121;SDS011;40029;58.708;50.190;2023-05-06T09:02:03;3.95;;;1.80;;
54121;SDS011;40029;58.708;50.190;2023-05-06T09:04:34;5.07;;;2.53;;
54121;SDS011;40029;58.708;50.190;2023-05-06T09:07:06;4.53;;;2.85;;
54121;SDS011;40029;58.708;50.190;2023-05-06T09:09:38;5.10;;;2.30;;
54121;SDS011;40029;58.708;50.190;2023-05-06T09:12:10;5.35;;;1.77;;
54121;SDS011;40029;58.708;50.190;2023-05-06T09:14:43;2.42;;;1.92;;
54121;SDS011;40029;58.708;50.190;2023-05-06T09:17:34;1.92;;;1.40;;
54121;SDS011;40029;58.708;50.190;2023-05-06T09:20:06;3.30;;;2.33;;
54121;SDS011;40029;58.708;50.190;2023-05-06T09:22:41;4.82;;;2.63;;
54121;SDS011;40029;58.708;50.190;2023-05-06T09:25:13;5.20;;;2.83;;
54121;SDS011;40029;58.708;50.190;2023-05-06T09:27:44;4.03;;;2.53;;
54121;SDS011;40029;58.708;50.190;2023-05-06T09:30:15;5.70;;;3.40;;
54121;SDS011;40029;58.708;50.190;2023-05-06T09:33:05;5.57;;;3.50;;
54121;SDS011;40029;58.708;50.190;2023-05-06T09:35:55;6.63;;;2.92;;
54121;SDS011;40029;58.708;50.190;2023-05-06T09:38:26;5.70;;;3.10;;
54121;SDS011;40029;58.708;50.190;2023-05-06T09:40:58;5.70;;;2.50;;
54121;SDS011;40029;58.708;50.190;2023-05-06T09:43:47;2.92;;;2.33;;
54121;SDS011;40029;58.708;50.190;2023-05-06T09:46:21;7.03;;;3.50;;
54121;SDS011;40029;58.708;50.190;2023-05-06T09:48:54;0.80;;;0.52;;
54121;SDS011;40029;58.708;50.190;2023-05-06T09:51:27;1.83;;;0.90;;
54121;SDS011;40029;58.708;50.190;2023-05-06T09:54:00;1.65;;;0.88;;
54121;SDS011;40029;58.708;50.190;2023-05-06T09:56:33;6.03;;;2.20;;
54121;SDS011;40029;58.708;50.190;2023-05-06T09:59:05;7.30;;;3.72;;
54121;SDS011;40029;58.708;50.190;2023-05-06T10:01:37;3.58;;;1.95;;
54121;SDS011;40029;58.708;50.190;2023-05-06T10:04:09;2.72;;;1.27;;
54121;SDS011;40029;58.708;50.190;2023-05-06T10:06:42;4.35;;;2.22;;
54121;SDS011;40029;58.708;50.190;2023-05-06T10:09:16;3.00;;;1.30;;
54121;SDS011;40029;58.708;50.190;2023-05-06T10:11:48;3.55;;;1.83;;
54121;SDS011;40029;58.708;50.190;2023-05-06T10:14:21;4.82;;;2.15;;
54121;SDS011;40029;58.708;50.190;2023-05-06T10:16:53;1.63;;;1.30;;
54121;SDS011;40029;58.708;50.190;2023-05-06T10:19:24;1.38;;;1.13;;
54121;SDS011;40029;58.708;50.190;2023-05-06T10:22:02;1.52;;;1.05;;
54121;SDS011;40029;58.708;50.190;2023-05-06T10:24:44;3.55;;;1.42;;
54121;SDS011;40029;58.708;50.190;2023-05-06T10:27:20;1.30;;;1.00;;
54121;SDS011;40029;58.708;50.190;2023-05-06T10:29:57;2.75;;;2.00;;
54121;SDS011;40029;58.708;50.190;2023-05-06T10:32:30;2.20;;;1.00;;
54121;SDS011;40029;58.708;50.190;2023-05-06T10:35:08;1.65;;;0.90;;
54121;SDS011;40029;58.708;50.190;2023-05-06T10:37:45;1.73;;;0.90;;
54121;SDS011;40029;58.708;50.190;2023-05-06T10:40:19;1.10;;;0.80;;
54121;SDS011;40029;58.708;50.190;2023-05-06T10:43:21;3.42;;;1.92;;
54121;SDS011;40029;58.708;50.190;2023-05-06T10:51:45;4.28;;;1.40;;
54121;SDS011;40029;58.708;50.190;2023-05-06T10:59:21;38.13;;;20.13;;
54121;SDS011;40029;58.708;50.190;2023-05-06T11:01:55;21.10;;;8.45;;
54121;SDS011;40029;58.708;50.190;2023-05-06T11:04:37;17.70;;;6.50;;
54121;SDS011;40029;58.708;50.190;2023-05-06T11:07:10;9.07;;;4.38;;
54121;SDS011;40029;58.708;50.190;2023-05-06T11:10:03;10.13;;;5.13;;
54121;SDS011;40029;58.708;50.190;2023-05-06T11:12:47;8.73;;;4.65;;
54121;SDS011;40029;58.708;50.190;2023-05-06T11:15:25;8.48;;;4.03;;
54121;SDS011;40029;58.708;50.190;2023-05-06T11:24:22;20.23;;;8.48;;
54121;SDS011;40029;58.708;50.190;2023-05-06T11:26:27;16.42;;;8.13;;
54121;SDS011;40029;58.708;50.190;2023-05-06T11:29:17;11.98;;;5.97;;
54121;SDS011;40029;58.708;50.190;2023-05-06T11:31:48;7.22;;;4.25;;
54121;SDS011;40029;58.708;50.190;2023-05-06T11:37:25;4.90;;;2.50;;
54121;SDS011;40029;58.708;50.190;2023-05-06T11:39:58;9.55;;;4.90;;
54121;SDS011;40029;58.708;50.190;2023-05-06T11:42:47;8.25;;;3.95;;
54121;SDS011;40029;58.708;50.190;2023-05-06T11:45:18;8.52;;;6.93;;
54121;SDS011;40029;58.708;50.190;2023-05-06T11:47:52;7.93;;;6.53;;
54121;SDS011;40029;58.708;50.190;2023-05-06T11:50:43;13.40;;;8.18;;
54121;SDS011;40029;58.708;50.190;2023-05-06T11:53:15;4.70;;;3.80;;
54121;SDS011;40029;58.708;50.190;2023-05-06T11:55:50;4.90;;;4.30;;
54121;SDS011;40029;58.708;50.190;2023-05-06T11:58:24;12.50;;;6.70;;
54121;SDS011;40029;58.708;50.190;2023-05-06T12:00:57;19.58;;;9.77;;
54121;SDS011;40029;58.708;50.190;2023-05-06T12:03:30;11.65;;;6.10;;
54121;SDS011;40029;58.708;50.190;2023-05-06T12:06:02;5.40;;;3.83;;
54121;SDS011;40029;58.708;50.190;2023-05-06T12:08:34;8.20;;;4.28;;
54121;SDS011;40029;58.708;50.190;2023-05-06T12:11:08;6.13;;;4.47;;
54121;SDS011;40029;58.708;50.190;2023-05-06T12:13:40;5.32;;;4.30;;
54121;SDS011;40029;58.708;50.190;2023-05-06T12:16:11;5.88;;;5.03;;
54121;SDS011;40029;58.708;50.190;2023-05-06T12:19:03;3.95;;;2.63;;
54121;SDS011;40029;58.708;50.190;2023-05-06T12:21:38;6.10;;;3.85;;
54121;SDS011;40029;58.708;50.190;2023-05-06T12:24:09;6.00;;;4.45;;
54121;SDS011;40029;58.708;50.190;2023-05-06T12:26:42;5.13;;;3.78;;
54121;SDS011;40029;58.708;50.190;2023-05-06T12:29:33;6.50;;;4.05;;
54121;SDS011;40029;58.708;50.190;2023-05-06T12:32:06;7.15;;;4.47;;
54121;SDS011;40029;58.708;50.190;2023-05-06T12:34:39;8.35;;;4.03;;
54121;SDS011;40029;58.708;50.190;2023-05-06T12:37:11;5.50;;;2.45;;
54121;SDS011;40029;58.708;50.190;2023-05-06T12:39:54;5.22;;;3.30;;
54121;SDS011;40029;58.708;50.190;2023-05-06T12:42:25;5.22;;;2.80;;
54121;SDS011;40029;58.708;50.190;2023-05-06T12:45:16;3.42;;;2.72;;
54121;SDS011;40029;58.708;50.190;2023-05-06T12:47:51;6.03;;;3.30;;
54121;SDS011;40029;58.708;50.190;2023-05-06T12:50:39;5.57;;;3.50;;
54121;SDS011;40029;58.708;50.190;2023-05-06T12:53:12;8.63;;;5.63;;
54121;SDS011;40029;58.708;50.190;2023-05-06T12:55:43;15.50;;;8.35;;
54121;SDS011;40029;58.708;50.190;2023-05-06T12:58:18;20.38;;;10.70;;
54121;SDS011;40029;58.708;50.190;2023-05-06T13:00:50;9.77;;;6.60;;
54121;SDS011;40029;58.708;50.190;2023-05-06T13:03:21;8.63;;;5.55;;
54121;SDS011;40029;58.708;50.190;2023-05-06T13:05:53;7.43;;;3.97;;
54121;SDS011;40029;58.708;50.190;2023-05-06T13:08:24;6.90;;;4.13;;
54121;SDS011;40029;58.708;50.190;2023-05-06T13:10:55;12.57;;;3.17;;
54121;SDS011;40029;58.708;50.190;2023-05-06T13:13:26;6.45;;;3.75;;
54121;SDS011;40029;58.708;50.190;2023-05-06T13:15:58;12.38;;;5.65;;
54121;SDS011;40029;58.708;50.190;2023-05-06T13:18:29;11.50;;;7.28;;
54121;SDS011;40029;58.708;50.190;2023-05-06T13:21:00;12.93;;;8.30;;
54121;SDS011;40029;58.708;50.190;2023-05-06T13:23:32;6.15;;;5.07;;
54121;SDS011;40029;58.708;50.190;2023-05-06T13:26:04;4.63;;;2.90;;
54121;SDS011;40029;58.708;50.190;2023-05-06T13:28:35;5.75;;;3.70;;
54121;SDS011;40029;58.708;50.190;2023-05-06T13:31:08;4.05;;;2.60;;
54121;SDS011;40029;58.708;50.190;2023-05-06T13:33:40;5.75;;;3.38;;
54121;SDS011;40029;58.708;50.190;2023-05-06T13:36:11;5.13;;;2.10;;
54121;SDS011;40029;58.708;50.190;2023-05-06T13:39:01;6.43;;;3.20;;
54121;SDS011;40029;58.708;50.190;2023-05-06T13:41:32;4.03;;;3.10;;
54121;SDS011;40029;58.708;50.190;2023-05-06T13:44:04;2.80;;;2.25;;
54121;SDS011;40029;58.708;50.190;2023-05-06T13:46:36;7.70;;;4.47;;
54121;SDS011;40029;58.708;50.190;2023-05-06T13:49:07;4.80;;;3.50;;
54121;SDS011;40029;58.708;50.190;2023-05-06T13:51:38;5.13;;;3.22;;
54121;SDS011;40029;58.708;50.190;2023-05-06T13:54:10;3.22;;;1.60;;
54121;SDS011;40029;58.708;50.190;2023-05-06T13:57:00;3.30;;;1.27;;
54121;SDS011;40029;58.708;50.190;2023-05-06T13:59:31;3.55;;;2.58;;
54121;SDS011;40029;58.708;50.190;2023-05-06T14:02:02;3.15;;;2.17;;
54121;SDS011;40029;58.708;50.190;2023-05-06T14:04:52;8.38;;;2.63;;
54121;SDS011;40029;58.708;50.190;2023-05-06T14:07:24;5.55;;;2.35;;
54121;SDS011;40029;58.708;50.190;2023-05-06T14:09:55;7.57;;;2.70;;
54121;SDS011;40029;58.708;50.190;2023-05-06T14:12:27;5.20;;;2.13;;
54121;SDS011;40029;58.708;50.190;2023-05-06T14:14:58;3.08;;;1.55;;
54121;SDS011;40029;58.708;50.190;2023-05-06T14:17:29;1.50;;;1.05;;
54121;SDS011;40029;58.708;50.190;2023-05-06T14:20:18;2.47;;;1.00;;
54121;SDS011;40029;58.708;50.190;2023-05-06T14:22:50;0.70;;;0.65;;
54121;SDS011;40029;58.708;50.190;2023-05-06T14:25:21;1.35;;;0.63;;
54121;SDS011;40029;58.708;50.190;2023-05-06T14:27:57;1.40;;;1.00;;
54121;SDS011;40029;58.708;50.190;2023-05-06T14:30:28;2.15;;;1.50;;
54121;SDS011;40029;58.708;50.190;2023-05-06T14:33:00;5.38;;;1.80;;
54121;SDS011;40029;58.708;50.190;2023-05-06T14:35:31;4.28;;;3.30;;
54121;SDS011;40029;58.708;50.190;2023-05-06T14:38:02;9.43;;;6.05;;
54121;SDS011;40029;58.708;50.190;2023-05-06T14:40:34;7.32;;;4.80;;
54121;SDS011;40029;58.708;50.190;2023-05-06T14:43:06;9.18;;;6.40;;
54121;SDS011;40029;58.708;50.190;2023-05-06T14:45:37;3.45;;;1.90;;
54121;SDS011;40029;58.708;50.190;2023-05-06T14:48:09;2.00;;;1.60;;
54121;SDS011;40029;58.708;50.190;2023-05-06T14:50:40;3.92;;;2.70;;
54121;SDS011;40029;58.708;50.190;2023-05-06T14:53:11;9.05;;;5.90;;
54121;SDS011;40029;58.708;50.190;2023-05-06T14:55:43;4.00;;;3.10;;
54121;SDS011;40029;58.708;50.190;2023-05-06T14:58:15;6.82;;;3.65;;
54121;SDS011;40029;58.708;50.190;2023-05-06T15:00:46;18.23;;;9.63;;
54121;SDS011;40029;58.708;50.190;2023-05-06T15:03:17;4.78;;;2.88;;
54121;SDS011;40029;58.708;50.190;2023-05-06T15:05:48;11.70;;;5.75;;
54121;SDS011;40029;58.708;50.190;2023-05-06T15:08:20;5.22;;;2.92;;
54121;SDS011;40029;58.708;50.190;2023-05-06T15:10:52;9.30;;;4.40;;
54121;SDS011;40029;58.708;50.190;2023-05-06T15:13:24;8.70;;;4.72;;
54121;SDS011;40029;58.708;50.190;2023-05-06T15:16:14;11.07;;;4.32;;
54121;SDS011;40029;58.708;50.190;2023-05-06T15:18:45;16.73;;;8.75;;
54121;SDS011;40029;58.708;50.190;2023-05-06T15:21:16;8.77;;;5.43;;
54121;SDS011;40029;58.708;50.190;2023-05-06T15:23:48;6.63;;;4.07;;
54121;SDS011;40029;58.708;50.190;2023-05-06T15:26:19;9.15;;;4.55;;
54121;SDS011;40029;58.708;50.190;2023-05-06T15:29:09;13.70;;;5.78;;
54121;SDS011;40029;58.708;50.190;2023-05-06T15:31:42;12.75;;;6.88;;
54121;SDS011;40029;58.708;50.190;2023-05-06T15:34:14;11.50;;;6.90;;
54121;SDS011;40029;58.708;50.190;2023-05-06T15:36:49;7.75;;;3.65;;
54121;SDS011;40029;58.708;50.190;2023-05-06T15:39:22;16.90;;;7.50;;
54121;SDS011;40029;58.708;50.190;2023-05-06T15:42:12;9.10;;;4.35;;
54121;SDS011;40029;58.708;50.190;2023-05-06T15:44:45;15.30;;;7.13;;
54121;SDS011;40029;58.708;50.190;2023-05-06T15:47:17;8.20;;;4.63;;
54121;SDS011;40029;58.708;50.190;2023-05-06T15:49:48;2.90;;;1.70;;
54121;SDS011;40029;58.708;50.190;2023-05-06T15:52:19;5.00;;;1.92;;
54121;SDS011;40029;58.708;50.190;2023-05-06T15:55:09;3.60;;;2.15;;